sensor_id;sensor_type;location;lat;lon;timestamp;pressure;altitude;pressure_sealevel;temperature;humidity
84358;BME280;74548;47.712;9.272;2024-03-23T00:55:12;95216.56;;;14.77;55.63
84358;BME280;74548;47.712;9.272;2024-03-23T00:57:37;95211.47;;;14.76;55.70
84358;BME280;74548;47.712;9.272;2024-03-23T01:00:03;95210.66;;;14.75;55.62
84358;BME280;74548;47.712;9.272;2024-03-23T01:02:31;95209.88;;;14.75;55.32
84358;BME280;74548;47.712;9.272;2024-03-23T01:04:56;95201.72;;;14.75;55.56
84358;BME280;74548;47.712;9.272;2024-03-23T01:07:22;95202.03;;;14.73;55.60
84358;BME280;74548;47.712;9.272;2024-03-23T01:09:47;95210.19;;;14.73;55.38
84358;BME280;74548;47.712;9.272;2024-03-23T01:12:13;95209.69;;;14.71;55.45
84358;BME280;74548;47.712;9.272;2024-03-23T01:14:38;95211.63;;;14.71;55.65
84358;BME280;74548;47.712;9.272;2024-03-23T01:17:03;95207.31;;;14.70;55.26
84358;BME280;74548;47.712;9.272;2024-03-23T01:19:29;95206.53;;;14.69;55.45
84358;BME280;74548;47.712;9.272;2024-03-23T01:21:54;95205.72;;;14.69;55.88
84358;BME280;74548;47.712;9.272;2024-03-23T01:24:19;95214.97;;;14.68;55.45
84358;BME280;74548;47.712;9.272;2024-03-23T01:26:45;95209.88;;;14.66;56.02
84358;BME280;74548;47.712;9.272;2024-03-23T01:29:10;95201.25;;;14.64;55.69
84358;BME280;74548;47.712;9.272;2024-03-23T01:31:36;95197.75;;;14.63;55.66
84358;BME280;74548;47.712;9.272;2024-03-23T01:36:14;95193.44;;;14.62;55.34
84358;BME280;74548;47.712;9.272;2024-03-23T01:38:40;95192.66;;;14.62;55.79
84358;BME280;74548;47.712;9.272;2024-03-23T01:41:05;95189.13;;;14.61;55.72
84358;BME280;74548;47.712;9.272;2024-03-23T01:43:30;95182.91;;;14.61;55.49
84358;BME280;74548;47.712;9.272;2024-03-23T01:45:56;95177.81;;;14.59;55.47
84358;BME280;74548;47.712;9.272;2024-03-23T01:48:21;95178.91;;;14.58;56.04
84358;BME280;74548;47.712;9.272;2024-03-23T01:50:47;95171.09;;;14.57;55.94
84358;BME280;74548;47.712;9.272;2024-03-23T01:53:14;95171.09;;;14.57;55.94
84358;BME280;74548;47.712;9.272;2024-03-23T01:55:42;95168.38;;;14.57;56.05
84358;BME280;74548;47.712;9.272;2024-03-23T01:58:07;95166.78;;;14.56;55.54
84358;BME280;74548;47.712;9.272;2024-03-23T02:00:33;95150.03;;;14.54;55.75
84358;BME280;74548;47.712;9.272;2024-03-23T02:02:58;95148.09;;;14.54;55.57
84358;BME280;74548;47.712;9.272;2024-03-23T02:05:23;95154.66;;;14.53;55.58
84358;BME280;74548;47.712;9.272;2024-03-23T02:07:49;95141.41;;;14.52;55.96
84358;BME280;74548;47.712;9.272;2024-03-23T02:10:15;95135.97;;;14.52;55.65
84358;BME280;74548;47.712;9.272;2024-03-23T02:12:41;95137.09;;;14.51;55.94
84358;BME280;74548;47.712;9.272;2024-03-23T02:15:06;95124.63;;;14.50;56.10
84358;BME280;74548;47.712;9.272;2024-03-23T02:17:34;95112.16;;;14.49;55.71
84358;BME280;74548;47.712;9.272;2024-03-23T02:20:00;95117.56;;;14.49;55.57
84358;BME280;74548;47.712;9.272;2024-03-23T02:22:36;95120.63;;;14.47;55.79
84358;BME280;74548;47.712;9.272;2024-03-23T02:25:04;95115.19;;;14.47;56.01
84358;BME280;74548;47.712;9.272;2024-03-23T02:27:29;95110.91;;;14.46;55.83
84358;BME280;74548;47.712;9.272;2024-03-23T02:29:54;95104.66;;;14.46;55.97
84358;BME280;74548;47.712;9.272;2024-03-23T02:32:20;95098.44;;;14.45;55.88
84358;BME280;74548;47.712;9.272;2024-03-23T02:34:45;95093.34;;;14.44;55.77
84358;BME280;74548;47.712;9.272;2024-03-23T02:37:11;95095.25;;;14.43;56.04
84358;BME280;74548;47.712;9.272;2024-03-23T02:39:37;95093.66;;;14.42;56.18
84358;BME280;74548;47.712;9.272;2024-03-23T02:42:02;95092.84;;;14.42;56.00
84358;BME280;74548;47.712;9.272;2024-03-23T02:44:28;95085.84;;;14.40;55.89
84358;BME280;74548;47.712;9.272;2024-03-23T02:46:53;95067.16;;;14.39;56.23
84358;BME280;74548;47.712;9.272;2024-03-23T02:49:18;95062.50;;;14.39;56.14
84358;BME280;74548;47.712;9.272;2024-03-23T02:51:43;95053.13;;;14.37;55.72
84358;BME280;74548;47.712;9.272;2024-03-23T02:54:10;95052.31;;;14.36;56.27
84358;BME280;74548;47.712;9.272;2024-03-23T02:56:36;95037.16;;;14.35;56.09
84358;BME280;74548;47.712;9.272;2024-03-23T02:59:01;95042.59;;;14.35;56.31
84358;BME280;74548;47.712;9.272;2024-03-23T03:01:26;95035.56;;;14.34;56.22
84358;BME280;74548;47.712;9.272;2024-03-23T03:06:25;95044.81;;;14.33;56.51
84358;BME280;74548;47.712;9.272;2024-03-23T03:08:50;95037.00;;;14.32;56.18
84358;BME280;74548;47.712;9.272;2024-03-23T03:11:16;95032.38;;;14.32;56.15
84358;BME280;74548;47.712;9.272;2024-03-23T03:13:41;95030.00;;;14.31;55.88
84358;BME280;74548;47.712;9.272;2024-03-23T03:16:10;95025.69;;;14.30;56.15
84358;BME280;74548;47.712;9.272;2024-03-23T03:18:36;95016.75;;;14.29;56.60
84358;BME280;74548;47.712;9.272;2024-03-23T03:21:01;95027.94;;;14.28;56.09
84358;BME280;74548;47.712;9.272;2024-03-23T03:23:27;95022.50;;;14.28;56.53
84358;BME280;74548;47.712;9.272;2024-03-23T03:25:53;95022.81;;;14.26;56.41
84358;BME280;74548;47.712;9.272;2024-03-23T03:28:18;95016.59;;;14.26;56.43
84358;BME280;74548;47.712;9.272;2024-03-23T03:30:44;95015.81;;;14.25;56.57
84358;BME280;74548;47.712;9.272;2024-03-23T03:33:10;95021.53;;;14.24;56.07
84358;BME280;74548;47.712;9.272;2024-03-23T03:35:35;95027.78;;;14.24;56.40
84358;BME280;74548;47.712;9.272;2024-03-23T03:38:00;95029.25;;;14.22;56.19
84358;BME280;74548;47.712;9.272;2024-03-23T03:40:26;95030.03;;;14.22;56.58
84358;BME280;74548;47.712;9.272;2024-03-23T03:42:51;95033.88;;;14.21;56.44
84358;BME280;74548;47.712;9.272;2024-03-23T03:45:16;95033.06;;;14.21;56.13
84358;BME280;74548;47.712;9.272;2024-03-23T03:47:42;95034.19;;;14.20;56.88
84358;BME280;74548;47.712;9.272;2024-03-23T03:50:07;95027.97;;;14.19;56.36
84358;BME280;74548;47.712;9.272;2024-03-23T03:52:32;95025.56;;;14.17;56.42
84358;BME280;74548;47.712;9.272;2024-03-23T03:55:02;95031.81;;;14.18;56.42
84358;BME280;74548;47.712;9.272;2024-03-23T03:57:28;95025.56;;;14.17;56.60
84358;BME280;74548;47.712;9.272;2024-03-23T03:59:53;95017.75;;;14.16;56.33
84358;BME280;74548;47.712;9.272;2024-03-23T04:02:18;95013.47;;;14.15;56.71
84358;BME280;74548;47.712;9.272;2024-03-23T04:04:43;95009.97;;;14.14;56.74
84358;BME280;74548;47.712;9.272;2024-03-23T04:07:09;95003.72;;;14.14;56.33
84358;BME280;74548;47.712;9.272;2024-03-23T04:12:02;94993.19;;;14.12;56.95
84358;BME280;74548;47.712;9.272;2024-03-23T04:14:27;94995.13;;;14.12;56.63
84358;BME280;74548;47.712;9.272;2024-03-23T04:16:53;94981.56;;;14.12;56.50
84358;BME280;74548;47.712;9.272;2024-03-23T04:19:18;94976.44;;;14.10;56.60
84358;BME280;74548;47.712;9.272;2024-03-23T04:21:44;94970.22;;;14.10;56.60
84358;BME280;74548;47.712;9.272;2024-03-23T04:26:43;94968.63;;;14.09;56.51
84358;BME280;74548;47.712;9.272;2024-03-23T04:29:08;94962.41;;;14.08;56.60
84358;BME280;74548;47.712;9.272;2024-03-23T04:31:34;94960.81;;;14.07;56.63
84358;BME280;74548;47.712;9.272;2024-03-23T04:34:01;94965.44;;;14.07;56.40
84358;BME280;74548;47.712;9.272;2024-03-23T04:36:26;94958.44;;;14.06;56.92
84358;BME280;74548;47.712;9.272;2024-03-23T04:38:51;94958.44;;;14.06;56.33
84358;BME280;74548;47.712;9.272;2024-03-23T04:41:17;94947.09;;;14.04;56.90
84358;BME280;74548;47.712;9.272;2024-03-23T04:43:43;94933.53;;;14.04;57.10
84358;BME280;74548;47.712;9.272;2024-03-23T04:46:08;94934.66;;;14.03;56.83
84358;BME280;74548;47.712;9.272;2024-03-23T04:48:34;94920.31;;;14.02;56.77
84358;BME280;74548;47.712;9.272;2024-03-23T04:50:59;94910.56;;;14.01;56.68
84358;BME280;74548;47.712;9.272;2024-03-23T04:53:25;94910.56;;;14.01;56.70
84358;BME280;74548;47.712;9.272;2024-03-23T04:55:54;94901.63;;;14.01;56.47
84358;BME280;74548;47.712;9.272;2024-03-23T04:58:20;94909.00;;;14.00;56.44
84358;BME280;74548;47.712;9.272;2024-03-23T05:00:45;94896.56;;;13.99;57.01
84358;BME280;74548;47.712;9.272;2024-03-23T05:03:10;94890.34;;;13.99;56.52
84358;BME280;74548;47.712;9.272;2024-03-23T05:05:36;94882.19;;;13.99;56.49
84358;BME280;74548;47.712;9.272;2024-03-23T05:08:01;94880.59;;;13.98;57.04
84358;BME280;74548;47.712;9.272;2024-03-23T05:10:26;94882.50;;;13.97;56.97
84358;BME280;74548;47.712;9.272;2024-03-23T05:12:52;94886.00;;;13.98;56.53
84358;BME280;74548;47.712;9.272;2024-03-23T05:15:17;94878.22;;;13.96;57.02
84358;BME280;74548;47.712;9.272;2024-03-23T05:17:43;94879.00;;;13.97;56.91
84358;BME280;74548;47.712;9.272;2024-03-23T05:20:08;94870.09;;;13.96;56.63
84358;BME280;74548;47.712;9.272;2024-03-23T05:22:36;94875.50;;;13.96;56.91
84358;BME280;74548;47.712;9.272;2024-03-23T05:25:02;94861.16;;;13.96;56.72
84358;BME280;74548;47.712;9.272;2024-03-23T05:27:31;94857.19;;;13.93;57.05
84358;BME280;74548;47.712;9.272;2024-03-23T05:29:56;94852.53;;;13.93;56.82
84358;BME280;74548;47.712;9.272;2024-03-23T05:32:22;94852.53;;;13.93;56.79
84358;BME280;74548;47.712;9.272;2024-03-23T05:34:47;94857.19;;;13.93;56.87
84358;BME280;74548;47.712;9.272;2024-03-23T05:37:21;94860.19;;;13.91;57.07
84358;BME280;74548;47.712;9.272;2024-03-23T05:39:46;94859.41;;;13.91;56.83
84358;BME280;74548;47.712;9.272;2024-03-23T05:42:13;94870.25;;;13.91;56.89
84358;BME280;74548;47.712;9.272;2024-03-23T05:44:39;94885.75;;;13.90;57.01
84358;BME280;74548;47.712;9.272;2024-03-23T05:47:05;94897.38;;;13.91;57.01
84358;BME280;74548;47.712;9.272;2024-03-23T05:49:30;94905.84;;;13.89;56.71
84358;BME280;74548;47.712;9.272;2024-03-23T05:51:56;94932.16;;;13.89;56.87
84358;BME280;74548;47.712;9.272;2024-03-23T05:56:54;94944.13;;;13.88;57.02
84358;BME280;74548;47.712;9.272;2024-03-23T05:59:19;94955.63;;;13.85;56.36
84358;BME280;74548;47.712;9.272;2024-03-23T06:01:46;94957.41;;;13.81;54.98
84358;BME280;74548;47.712;9.272;2024-03-23T06:04:12;94963.03;;;13.67;55.29
84358;BME280;74548;47.712;9.272;2024-03-23T06:06:39;94987.75;;;13.57;56.14
84358;BME280;74548;47.712;9.272;2024-03-23T06:09:05;94972.47;;;13.52;55.91
84358;BME280;74548;47.712;9.272;2024-03-23T06:11:30;94963.88;;;13.50;56.45
84358;BME280;74548;47.712;9.272;2024-03-23T06:13:56;94959.56;;;13.49;56.29
84358;BME280;74548;47.712;9.272;2024-03-23T06:16:21;94958.78;;;13.49;55.96
84358;BME280;74548;47.712;9.272;2024-03-23T06:18:53;94957.66;;;13.50;56.36
84358;BME280;74548;47.712;9.272;2024-03-23T06:21:18;94971.22;;;13.50;56.44
84358;BME280;74548;47.712;9.272;2024-03-23T06:23:44;94956.53;;;13.51;56.54
84358;BME280;74548;47.712;9.272;2024-03-23T06:26:17;94954.28;;;13.53;56.23
84358;BME280;74548;47.712;9.272;2024-03-23T06:28:43;94964.34;;;13.52;56.52
84358;BME280;74548;47.712;9.272;2024-03-23T06:33:29;94972.78;;;13.51;56.75
84358;BME280;74548;47.712;9.272;2024-03-23T06:35:54;94955.44;;;13.52;56.89
84358;BME280;74548;47.712;9.272;2024-03-23T06:38:19;94973.28;;;13.53;56.75
84358;BME280;74548;47.712;9.272;2024-03-23T06:40:45;95004.38;;;13.55;57.14
84358;BME280;74548;47.712;9.272;2024-03-23T06:43:13;94992.25;;;13.53;57.33
84358;BME280;74548;47.712;9.272;2024-03-23T06:45:39;94990.19;;;13.50;57.72
84358;BME280;74548;47.712;9.272;2024-03-23T06:48:04;95018.88;;;13.51;57.85
84358;BME280;74548;47.712;9.272;2024-03-23T06:50:33;95016.50;;;13.49;57.64
84358;BME280;74548;47.712;9.272;2024-03-23T06:52:58;95012.19;;;13.48;57.85
84358;BME280;74548;47.712;9.272;2024-03-23T06:55:24;94979.97;;;13.46;57.91
84358;BME280;74548;47.712;9.272;2024-03-23T06:57:51;95055.06;;;13.46;58.07
84358;BME280;74548;47.712;9.272;2024-03-23T07:00:17;95023.97;;;13.43;57.85
84358;BME280;74548;47.712;9.272;2024-03-23T07:02:42;95009.94;;;13.41;57.96
84358;BME280;74548;47.712;9.272;2024-03-23T07:05:09;95007.56;;;13.40;58.19
84358;BME280;74548;47.712;9.272;2024-03-23T07:09:59;95009.50;;;13.39;58.13
84358;BME280;74548;47.712;9.272;2024-03-23T07:12:24;95000.56;;;13.39;58.31
84358;BME280;74548;47.712;9.272;2024-03-23T07:17:05;94985.75;;;13.36;57.67
84358;BME280;74548;47.712;9.272;2024-03-23T07:19:30;94995.00;;;13.35;58.29
84358;BME280;74548;47.712;9.272;2024-03-23T07:21:56;94996.88;;;13.35;57.84
84358;BME280;74548;47.712;9.272;2024-03-23T07:24:21;95018.91;;;13.33;58.08
84358;BME280;74548;47.712;9.272;2024-03-23T07:26:46;95021.59;;;13.33;58.00
84358;BME280;74548;47.712;9.272;2024-03-23T07:29:12;95029.75;;;13.33;57.89
84358;BME280;74548;47.712;9.272;2024-03-23T07:31:38;95063.03;;;13.34;57.95
84358;BME280;74548;47.712;9.272;2024-03-23T07:34:03;95061.47;;;13.33;57.76
84358;BME280;74548;47.712;9.272;2024-03-23T07:36:29;95044.41;;;13.32;57.56
84358;BME280;74548;47.712;9.272;2024-03-23T07:38:54;95061.75;;;13.31;57.38
84358;BME280;74548;47.712;9.272;2024-03-23T07:41:20;95060.19;;;13.30;57.39
84358;BME280;74548;47.712;9.272;2024-03-23T07:43:47;95065.91;;;13.29;57.23
84358;BME280;74548;47.712;9.272;2024-03-23T07:46:13;95077.06;;;13.27;57.33
84358;BME280;74548;47.712;9.272;2024-03-23T07:48:39;95073.25;;;13.28;56.98
84358;BME280;74548;47.712;9.272;2024-03-23T07:51:08;95070.53;;;13.28;56.94
84358;BME280;74548;47.712;9.272;2024-03-23T07:53:35;95072.44;;;13.28;57.08
84358;BME280;74548;47.712;9.272;2024-03-23T07:58:14;95071.97;;;13.26;57.25
84358;BME280;74548;47.712;9.272;2024-03-23T08:00:39;95086.00;;;13.28;57.00
84358;BME280;74548;47.712;9.272;2024-03-23T08:03:04;95074.97;;;13.24;57.01
84358;BME280;74548;47.712;9.272;2024-03-23T08:08:11;95134.28;;;13.26;56.91
84358;BME280;74548;47.712;9.272;2024-03-23T08:10:46;95102.59;;;13.26;57.04
84358;BME280;74548;47.712;9.272;2024-03-23T08:13:11;95134.91;;;13.22;57.03
84358;BME280;74548;47.712;9.272;2024-03-23T08:15:37;95126.28;;;13.20;57.37
84358;BME280;74548;47.712;9.272;2024-03-23T08:18:02;95162.31;;;13.21;57.47
84358;BME280;74548;47.712;9.272;2024-03-23T08:20:28;95159.09;;;13.19;57.10
84358;BME280;74548;47.712;9.272;2024-03-23T08:22:53;95205.16;;;13.19;57.09
84358;BME280;74548;47.712;9.272;2024-03-23T08:25:18;95268.09;;;13.16;56.90
84358;BME280;74548;47.712;9.272;2024-03-23T08:27:44;95206.91;;;13.15;57.02
84358;BME280;74548;47.712;9.272;2024-03-23T08:30:10;95223.00;;;13.11;56.67
84358;BME280;74548;47.712;9.272;2024-03-23T08:35:04;95230.47;;;13.06;56.66
84358;BME280;74548;47.712;9.272;2024-03-23T08:37:29;95256.47;;;13.07;56.54
84358;BME280;74548;47.712;9.272;2024-03-23T08:39:54;95265.69;;;13.06;56.20
84358;BME280;74548;47.712;9.272;2024-03-23T08:42:20;95256.59;;;13.01;55.25
84358;BME280;74548;47.712;9.272;2024-03-23T08:44:46;95248.75;;;13.00;55.72
84358;BME280;74548;47.712;9.272;2024-03-23T08:47:14;95238.53;;;12.97;55.84
84358;BME280;74548;47.712;9.272;2024-03-23T08:49:40;95268.66;;;12.95;56.06
84358;BME280;74548;47.712;9.272;2024-03-23T08:52:05;95271.38;;;12.95;55.59
84358;BME280;74548;47.712;9.272;2024-03-23T08:54:30;95276.00;;;12.95;55.98
84358;BME280;74548;47.712;9.272;2024-03-23T08:56:56;95305.78;;;12.95;55.60
84358;BME280;74548;47.712;9.272;2024-03-23T08:59:21;95276.00;;;12.95;55.53
84358;BME280;74548;47.712;9.272;2024-03-23T09:01:49;95308.50;;;12.95;55.54
84358;BME280;74548;47.712;9.272;2024-03-23T09:04:14;95311.19;;;12.95;55.71
84358;BME280;74548;47.712;9.272;2024-03-23T09:08:52;95313.13;;;12.94;55.49
84358;BME280;74548;47.712;9.272;2024-03-23T09:11:18;95316.91;;;12.93;55.41
84358;BME280;74548;47.712;9.272;2024-03-23T09:13:43;95328.88;;;12.92;55.39
84358;BME280;74548;47.712;9.272;2024-03-23T09:16:09;95332.69;;;12.91;55.43
84358;BME280;74548;47.712;9.272;2024-03-23T09:18:36;95323.44;;;12.92;55.15
84358;BME280;74548;47.712;9.272;2024-03-23T09:21:03;95323.78;;;12.91;55.07
84358;BME280;74548;47.712;9.272;2024-03-23T09:23:29;95338.72;;;12.88;55.35
84358;BME280;74548;47.712;9.272;2024-03-23T09:25:55;95345.22;;;12.87;55.03
84358;BME280;74548;47.712;9.272;2024-03-23T09:28:20;95340.94;;;12.86;54.63
84358;BME280;74548;47.712;9.272;2024-03-23T09:30:46;95341.72;;;12.87;54.01
84358;BME280;74548;47.712;9.272;2024-03-23T09:33:12;95313.69;;;12.83;54.31
84358;BME280;74548;47.712;9.272;2024-03-23T09:35:39;95326.25;;;12.78;53.36
84358;BME280;74548;47.712;9.272;2024-03-23T09:38:04;95329.75;;;12.79;54.26
84358;BME280;74548;47.712;9.272;2024-03-23T09:40:31;95330.84;;;12.78;54.47
84358;BME280;74548;47.712;9.272;2024-03-23T09:45:20;95342.16;;;12.80;53.88
84358;BME280;74548;47.712;9.272;2024-03-23T09:47:46;95353.00;;;12.80;53.95
84358;BME280;74548;47.712;9.272;2024-03-23T09:50:13;95367.31;;;12.81;53.88
84358;BME280;74548;47.712;9.272;2024-03-23T09:52:38;95378.16;;;12.81;53.71
84358;BME280;74548;47.712;9.272;2024-03-23T09:55:04;95389.31;;;12.79;53.80
84358;BME280;74548;47.712;9.272;2024-03-23T09:57:29;95386.59;;;12.79;53.30
84358;BME280;74548;47.712;9.272;2024-03-23T09:59:55;95393.09;;;12.78;53.66
84358;BME280;74548;47.712;9.272;2024-03-23T10:02:22;95392.03;;;12.79;53.38
84358;BME280;74548;47.712;9.272;2024-03-23T10:04:47;95391.53;;;12.77;53.15
84358;BME280;74548;47.712;9.272;2024-03-23T10:07:15;95406.97;;;12.76;53.22
84358;BME280;74548;47.712;9.272;2024-03-23T10:09:42;95414.78;;;12.78;52.80
84358;BME280;74548;47.712;9.272;2024-03-23T10:12:12;95404.25;;;12.76;52.86
84358;BME280;74548;47.712;9.272;2024-03-23T10:14:39;95396.13;;;12.76;52.84
84358;BME280;74548;47.712;9.272;2024-03-23T10:17:22;95381.47;;;12.77;52.25
84358;BME280;74548;47.712;9.272;2024-03-23T10:19:51;95397.72;;;12.77;52.82
84358;BME280;74548;47.712;9.272;2024-03-23T10:22:19;95389.94;;;12.76;52.84
84358;BME280;74548;47.712;9.272;2024-03-23T10:24:45;95403.47;;;12.76;52.79
84358;BME280;74548;47.712;9.272;2024-03-23T10:27:15;95396.94;;;12.77;52.56
84358;BME280;74548;47.712;9.272;2024-03-23T10:29:43;95392.31;;;12.77;52.42
84358;BME280;74548;47.712;9.272;2024-03-23T10:32:11;95381.47;;;12.77;52.38
84358;BME280;74548;47.712;9.272;2024-03-23T10:34:38;95388.00;;;12.76;52.67
84358;BME280;74548;47.712;9.272;2024-03-23T10:37:05;95390.72;;;12.76;52.67
84358;BME280;74548;47.712;9.272;2024-03-23T10:39:33;95405.06;;;12.77;52.73
84358;BME280;74548;47.712;9.272;2024-03-23T10:42:00;95403.16;;;12.77;52.43
84358;BME280;74548;47.712;9.272;2024-03-23T10:44:26;95401.22;;;12.78;52.32
84358;BME280;74548;47.712;9.272;2024-03-23T10:46:54;95403.47;;;12.76;52.38
84358;BME280;74548;47.712;9.272;2024-03-23T10:49:32;95417.00;;;12.76;52.50
84358;BME280;74548;47.712;9.272;2024-03-23T10:51:59;95402.66;;;12.75;52.44
84358;BME280;74548;47.712;9.272;2024-03-23T10:54:26;95401.56;;;12.76;52.43
84358;BME280;74548;47.712;9.272;2024-03-23T10:57:17;95398.06;;;12.76;52.40
84358;BME280;74548;47.712;9.272;2024-03-23T10:59:41;95388.00;;;12.76;52.37
84358;BME280;74548;47.712;9.272;2024-03-23T11:02:18;95388.81;;;12.77;52.54
84358;BME280;74548;47.712;9.272;2024-03-23T11:09:51;95398.53;;;12.78;52.67
84358;BME280;74548;47.712;9.272;2024-03-23T11:14:56;95383.09;;;12.78;52.44
84358;BME280;74548;47.712;9.272;2024-03-23T11:17:23;95390.91;;;12.80;52.42
84358;BME280;74548;47.712;9.272;2024-03-23T11:20:01;95370.34;;;12.79;51.86
84358;BME280;74548;47.712;9.272;2024-03-23T11:27:48;95379.56;;;12.78;51.87
84358;BME280;74548;47.712;9.272;2024-03-23T11:30:24;95373.06;;;12.79;51.94
84358;BME280;74548;47.712;9.272;2024-03-23T11:32:57;95376.56;;;12.80;51.73
84358;BME280;74548;47.712;9.272;2024-03-23T11:35:32;95372.44;;;12.82;51.66
84358;BME280;74548;47.712;9.272;2024-03-23T11:40:26;95365.13;;;12.83;51.88
84358;BME280;74548;47.712;9.272;2024-03-23T11:43:02;95357.00;;;12.83;51.79
84358;BME280;74548;47.712;9.272;2024-03-23T11:45:28;95362.41;;;12.83;52.00
84358;BME280;74548;47.712;9.272;2024-03-23T11:48:13;95373.25;;;12.83;51.75
84358;BME280;74548;47.712;9.272;2024-03-23T11:50:43;95352.38;;;12.83;51.76
84358;BME280;74548;47.712;9.272;2024-03-23T11:53:21;95361.63;;;12.82;50.24
84358;BME280;74548;47.712;9.272;2024-03-23T11:55:55;95376.25;;;12.81;51.21
84358;BME280;74548;47.712;9.272;2024-03-23T11:58:22;95358.13;;;12.82;51.20
84358;BME280;74548;47.712;9.272;2024-03-23T12:00:56;95379.78;;;12.82;50.20
84358;BME280;74548;47.712;9.272;2024-03-23T12:03:21;95414.16;;;12.81;49.85
84358;BME280;74548;47.712;9.272;2024-03-23T12:05:51;95340.56;;;12.79;49.79
84358;BME280;74548;47.712;9.272;2024-03-23T12:08:29;95379.56;;;12.78;49.21
84358;BME280;74548;47.712;9.272;2024-03-23T12:11:09;95355.53;;;12.76;48.80
84358;BME280;74548;47.712;9.272;2024-03-23T12:13:36;95331.94;;;12.77;48.24
84358;BME280;74548;47.712;9.272;2024-03-23T12:16:17;95329.56;;;12.75;48.18
84358;BME280;74548;47.712;9.272;2024-03-23T12:18:46;95359.34;;;12.75;47.89
84358;BME280;74548;47.712;9.272;2024-03-23T12:21:12;95339.59;;;12.75;47.95
84358;BME280;74548;47.712;9.272;2024-03-23T12:23:41;95384.50;;;12.76;47.39
84358;BME280;74548;47.712;9.272;2024-03-23T12:26:07;95336.06;;;12.74;47.41
84358;BME280;74548;47.712;9.272;2024-03-23T12:28:32;95315.84;;;12.72;47.43
84358;BME280;74548;47.712;9.272;2024-03-23T12:30:58;95357.53;;;12.71;47.17
84358;BME280;74548;47.712;9.272;2024-03-23T12:33:24;95346.72;;;12.71;46.70
84358;BME280;74548;47.712;9.272;2024-03-23T12:35:50;95341.81;;;12.73;46.88
84358;BME280;74548;47.712;9.272;2024-03-23T12:38:16;95357.25;;;12.72;46.46
84358;BME280;74548;47.712;9.272;2024-03-23T12:40:41;95329.38;;;12.72;45.98
84358;BME280;74548;47.712;9.272;2024-03-23T12:43:07;95358.66;;;12.70;46.06
84358;BME280;74548;47.712;9.272;2024-03-23T12:45:35;95345.41;;;12.68;46.01
84358;BME280;74548;47.712;9.272;2024-03-23T12:48:00;95380.31;;;12.70;45.77
84358;BME280;74548;47.712;9.272;2024-03-23T12:50:25;95370.59;;;12.69;45.30
84358;BME280;74548;47.712;9.272;2024-03-23T12:52:51;95370.91;;;12.67;45.70
84358;BME280;74548;47.712;9.272;2024-03-23T12:57:38;95418.16;;;12.61;46.09
84358;BME280;74548;47.712;9.272;2024-03-23T13:00:06;95393.00;;;12.61;46.29
84358;BME280;74548;47.712;9.272;2024-03-23T13:02:31;95436.63;;;12.59;46.67
84358;BME280;74548;47.712;9.272;2024-03-23T13:04:57;95420.38;;;12.59;46.82
84358;BME280;74548;47.712;9.272;2024-03-23T13:07:23;95418.28;;;12.56;47.18
84358;BME280;74548;47.712;9.272;2024-03-23T13:09:52;95427.00;;;12.53;46.88
84358;BME280;74548;47.712;9.272;2024-03-23T13:12:21;95427.81;;;12.53;47.25
84358;BME280;74548;47.712;9.272;2024-03-23T13:14:46;95393.69;;;12.52;46.82
84358;BME280;74548;47.712;9.272;2024-03-23T13:17:12;95415.34;;;12.52;47.00
84358;BME280;74548;47.712;9.272;2024-03-23T13:19:38;95409.34;;;12.55;47.33
84358;BME280;74548;47.712;9.272;2024-03-23T13:22:04;95393.31;;;12.59;47.45
84358;BME280;74548;47.712;9.272;2024-03-23T13:24:29;95385.97;;;12.60;47.48
84358;BME280;74548;47.712;9.272;2024-03-23T13:26:55;95377.84;;;12.60;47.67
84358;BME280;74548;47.712;9.272;2024-03-23T13:29:21;95406.19;;;12.62;47.67
84358;BME280;74548;47.712;9.272;2024-03-23T13:31:47;95372.31;;;12.65;47.81
84358;BME280;74548;47.712;9.272;2024-03-23T13:34:13;95366.28;;;12.68;47.80
84358;BME280;74548;47.712;9.272;2024-03-23T13:36:42;95367.59;;;12.70;48.53
84358;BME280;74548;47.712;9.272;2024-03-23T13:39:08;95351.50;;;12.74;47.95
84358;BME280;74548;47.712;9.272;2024-03-23T13:41:40;95358.22;;;12.76;47.31
84358;BME280;74548;47.712;9.272;2024-03-23T13:44:06;95376.56;;;12.80;46.86
84358;BME280;74548;47.712;9.272;2024-03-23T13:46:32;95366.53;;;12.80;46.85
84358;BME280;74548;47.712;9.272;2024-03-23T13:48:58;95372.44;;;12.82;45.92
84358;BME280;74548;47.712;9.272;2024-03-23T13:51:24;95318.59;;;12.81;45.94
84358;BME280;74548;47.712;9.272;2024-03-23T13:53:56;95310.78;;;12.79;45.72
84358;BME280;74548;47.712;9.272;2024-03-23T13:56:24;95331.03;;;12.82;45.56
84358;BME280;74548;47.712;9.272;2024-03-23T13:58:50;95403.03;;;12.83;45.58
84358;BME280;74548;47.712;9.272;2024-03-23T14:03:31;95376.47;;;12.85;44.94
84358;BME280;74548;47.712;9.272;2024-03-23T14:05:59;95345.56;;;12.86;44.86
84358;BME280;74548;47.712;9.272;2024-03-23T14:08:26;95321.69;;;12.88;44.75
84358;BME280;74548;47.712;9.272;2024-03-23T14:10:53;95346.84;;;12.88;44.53
84358;BME280;74548;47.712;9.272;2024-03-23T14:13:19;95344.59;;;12.90;44.41
84358;BME280;74548;47.712;9.272;2024-03-23T14:15:45;95353.25;;;12.92;44.60
84358;BME280;74548;47.712;9.272;2024-03-23T14:18:10;95331.25;;;12.94;44.86
84358;BME280;74548;47.712;9.272;2024-03-23T14:20:41;95326.50;;;12.99;44.26
84358;BME280;74548;47.712;9.272;2024-03-23T14:23:06;95336.25;;;13.00;43.86
84358;BME280;74548;47.712;9.272;2024-03-23T14:27:49;95331.25;;;12.94;44.00
84358;BME280;74548;47.712;9.272;2024-03-23T14:30:15;95328.25;;;12.95;42.85
84358;BME280;74548;47.712;9.272;2024-03-23T14:32:40;95330.63;;;12.97;43.87
84358;BME280;74548;47.712;9.272;2024-03-23T14:35:06;95328.69;;;12.89;44.12
84358;BME280;74548;47.712;9.272;2024-03-23T14:37:33;95350.34;;;12.89;44.49
84358;BME280;74548;47.712;9.272;2024-03-23T14:39:59;95322.03;;;12.95;45.56
84358;BME280;74548;47.712;9.272;2024-03-23T14:42:24;95315.66;;;12.99;43.79
84358;BME280;74548;47.712;9.272;2024-03-23T14:44:50;95323.69;;;13.05;44.15